Time;durP1;ratioP1;P1;durP2;ratioP2;P2;SDS_P1;SDS_P2;PMS_P1;PMS_P2;Temp;Humidity;BMP_temperature;BMP_pressure;BME280_temperature;BME280_humidity;BME280_pressure;Samples;Min_cycle;Max_cycle;Signal;HPM_P1;HPM_P2
2023/03/19 00:01:04;;;;;;;2.28;2.08;;;;;;;8.54;47.93;100306.28;5307118;26;34284;-88
2023/03/19 00:03:32;;;;;;;1.35;1.30;;;;;;;8.30;48.47;100305.13;5307206;26;34314;-88
2023/03/19 00:06:01;;;;;;;0.70;0.70;;;;;;;8.03;49.09;100311.13;5288965;26;32600;-88
2023/03/19 00:08:28;;;;;;;1.08;1.08;;;;;;;8.12;48.85;100301.25;5306268;26;32624;-87
2023/03/19 00:10:56;;;;;;;0.85;0.85;;;;;;;8.16;48.74;100297.59;5288493;26;32459;-87
2023/03/19 00:13:24;;;;;;;0.20;0.20;;;;;;;8.01;49.27;100305.91;5307322;26;32867;-89
2023/03/19 00:15:52;;;;;;;1.70;1.60;;;;;;;7.95;49.44;100293.75;5289319;26;32492;-90
2023/03/19 00:18:21;;;;;;;6.12;2.00;;;;;;;7.89;49.51;100300.97;5289612;26;32531;-89
2023/03/19 00:20:48;;;;;;;0.37;0.37;;;;;;;7.96;49.15;100297.25;5288945;26;33418;-89
2023/03/19 00:23:16;;;;;;;0.52;0.52;;;;;;;7.90;49.17;100303.53;5325610;26;33273;-89
2023/03/19 00:25:44;;;;;;;1.42;1.33;;;;;;;8.03;48.82;100293.59;5271123;26;32922;-88
2023/03/19 00:28:12;;;;;;;0.60;0.60;;;;;;;7.77;49.93;100296.84;5324977;26;32184;-88
2023/03/19 00:30:39;;;;;;;0.57;0.57;;;;;;;8.00;49.30;100287.53;5305678;26;32752;-89
2023/03/19 00:33:08;;;;;;;1.27;1.17;;;;;;;7.83;49.52;100291.47;5324905;26;33036;-88
2023/03/19 00:35:38;;;;;;;1.65;0.50;;;;;;;7.54;50.61;100288.66;5324997;26;33263;-87
2023/03/19 00:38:06;;;;;;;0.00;0.00;;;;;;;7.71;50.12;100291.75;5288214;26;32644;-88
2023/03/19 00:40:34;;;;;;;0.32;0.32;;;;;;;7.80;49.69;100285.41;5302533;27;33765;-87
2023/03/19 00:43:02;;;;;;;1.45;1.35;;;;;;;7.83;49.66;100278.31;5302589;27;34045;-88
2023/03/19 00:45:29;;;;;;;0.30;0.30;;;;;;;7.68;49.84;100279.53;5285093;27;32837;-88
2023/03/19 00:47:58;;;;;;;0.50;0.50;;;;;;;7.78;49.74;100281.94;5320880;27;32710;-87
2023/03/19 00:50:25;;;;;;;0.70;0.70;;;;;;;8.01;49.02;100271.72;5302692;27;33888;-88
2023/03/19 00:52:53;;;;;;;2.60;2.00;;;;;;;7.86;49.54;100269.47;5284278;27;33165;-88
2023/03/19 00:55:21;;;;;;;0.37;0.37;;;;;;;7.85;49.55;100273.88;5284452;27;32591;-88
2023/03/19 00:57:48;;;;;;;0.73;0.73;;;;;;;7.90;49.15;100268.50;5284491;27;33142;-88
2023/03/19 01:00:18;;;;;;;0.25;0.25;;;;;;;7.88;49.30;100279.06;5284808;27;34169;-89
2023/03/19 01:02:46;;;;;;;1.60;1.50;;;;;;;7.90;49.27;100279.88;5303698;26;34140;-89
2023/03/19 01:05:15;;;;;;;1.60;1.50;;;;;;;7.92;49.14;100277.19;5285286;27;33565;-88
2023/03/19 01:07:42;;;;;;;2.35;1.27;;;;;;;8.03;48.88;100271.69;5303450;26;31860;-89
2023/03/19 01:10:11;;;;;;;0.68;0.68;;;;;;;7.90;48.86;100276.38;5302743;27;33308;-89
2023/03/19 01:12:39;;;;;;;1.98;0.62;;;;;;;7.86;49.16;100280.84;5285379;27;32701;-89
2023/03/19 01:15:52;;;;;;;0.22;0.22;;;;;;;7.85;49.12;100280.91;5294553;27;32825;-88
2023/03/19 01:18:21;;;;;;;1.75;0.95;;;;;;;7.94;48.86;100281.53;5321147;27;32520;-88
2023/03/19 01:20:49;;;;;;;0.03;0.03;;;;;;;7.91;49.05;100281.59;5285007;27;33929;-89
2023/03/19 01:23:18;;;;;;;1.33;1.23;;;;;;;8.00;48.65;100280.50;5303356;27;33923;-88
2023/03/19 01:25:46;;;;;;;0.28;0.28;;;;;;;7.92;48.37;100282.44;5284568;27;33349;-89
2023/03/19 01:28:14;;;;;;;0.17;0.17;;;;;;;7.82;48.72;100278.34;5284594;27;32498;-88
2023/03/19 01:30:42;;;;;;;0.65;0.65;;;;;;;7.53;49.27;100279.03;5320935;27;33207;-88
2023/03/19 01:33:10;;;;;;;0.10;0.10;;;;;;;7.34;49.97;100289.97;5266656;27;34637;-88
2023/03/19 01:35:38;;;;;;;0.85;0.85;;;;;;;7.40;50.45;100287.19;5284943;27;32820;-88
2023/03/19 01:38:06;;;;;;;0.43;0.43;;;;;;;7.36;50.25;100282.94;5303297;26;32231;-88
2023/03/19 01:40:35;;;;;;;1.05;1.05;;;;;;;6.97;51.67;100289.03;5302494;27;32940;-89
2023/03/19 01:43:12;;;;;;;0.00;0.00;;;;;;;6.91;51.33;100277.78;5302660;27;33412;-88
2023/03/19 01:45:45;;;;;;;0.40;0.40;;;;;;;6.74;51.83;100276.41;5321271;27;33606;-88
2023/03/19 01:48:22;;;;;;;0.85;0.70;;;;;;;6.40;53.16;100277.06;5286372;27;32543;-88
2023/03/19 01:50:54;;;;;;;0.00;0.00;;;;;;;6.22;53.66;100282.66;5321038;27;33123;-88
2023/03/19 01:53:30;;;;;;;0.00;0.00;;;;;;;6.57;52.68;100289.88;5320981;27;34600;-89
2023/03/19 01:56:22;;;;;;;0.80;0.80;;;;;;;6.48;53.44;100297.91;5284813;27;32822;-88
2023/03/19 01:58:52;;;;;;;;;;;;;;;6.49;53.19;100289.13;5285546;27;32296;-88
2023/03/19 02:01:20;;;;;;;2.37;1.02;;;;;;;6.19;53.59;100299.31;5303006;27;33823;-89
2023/03/19 02:03:49;;;;;;;0.68;0.60;;;;;;;6.19;53.28;100296.69;5285371;27;33858;-88
2023/03/19 02:06:20;;;;;;;3.22;2.05;;;;;;;6.40;52.70;100285.78;5302771;27;33852;-88
2023/03/19 02:08:50;;;;;;;1.15;1.10;;;;;;;6.14;53.74;100288.91;5285130;27;32040;-88
2023/03/19 02:11:19;;;;;;;2.90;1.40;;;;;;;6.26;53.21;100273.84;5284802;27;34132;-88
2023/03/19 02:13:47;;;;;;;2.72;0.88;;;;;;;6.24;53.68;100267.75;5285062;27;33220;-86
2023/03/19 02:16:15;;;;;;;0.20;0.20;;;;;;;6.11;53.56;100280.22;5303239;27;33876;-87
2023/03/19 02:18:43;;;;;;;0.68;0.68;;;;;;;6.18;53.36;100274.00;5321650;26;32115;-87
2023/03/19 02:21:16;;;;;;;3.37;1.23;;;;;;;6.22;53.25;100274.78;5284978;27;32891;-86
2023/03/19 02:23:53;;;;;;;1.98;1.87;;;;;;;6.32;52.95;100277.22;5302935;26;32767;-89
2023/03/19 02:26:24;;;;;;;0.00;0.00;;;;;;;6.38;52.79;100273.63;5339017;26;33074;-89
2023/03/19 02:28:58;;;;;;;0.80;0.80;;;;;;;6.22;53.20;100266.91;5286471;27;32819;-89
2023/03/19 02:31:26;;;;;;;0.32;0.32;;;;;;;6.26;53.07;100272.06;5303184;26;32751;-89
2023/03/19 02:34:18;;;;;;;0.85;0.75;;;;;;;6.11;53.06;100262.72;5291278;27;32666;-89
2023/03/19 02:37:08;;;;;;;1.25;1.17;;;;;;;6.24;52.74;100266.00;5363848;26;33546;-89
2023/03/19 02:40:07;;;;;;;0.35;0.35;;;;;;;6.16;53.08;100262.66;5285750;26;33220;-89
2023/03/19 02:42:46;;;;;;;1.10;1.10;;;;;;;5.97;53.71;100261.25;5291537;26;33181;-89
2023/03/19 02:45:37;;;;;;;0.70;0.70;;;;;;;6.18;53.11;100254.78;5346750;26;33016;-89
2023/03/19 02:48:16;;;;;;;2.60;1.12;;;;;;;6.15;53.41;100250.44;5326566;26;33137;-91
2023/03/19 02:50:49;;;;;;;0.52;0.52;;;;;;;6.01;53.08;100257.69;5308203;26;33226;-91
2023/03/19 02:53:37;;;;;;;1.42;1.33;;;;;;;5.88;53.81;100257.00;5310102;26;33205;-91
2023/03/19 02:56:37;;;;;;;1.58;1.50;;;;;;;6.01;53.66;100262.94;5324904;26;32964;-90
2023/03/19 02:59:18;;;;;;;1.83;1.08;;;;;;;5.78;54.11;100269.38;5303393;27;34080;-90
2023/03/19 03:02:10;;;;;;;2.45;1.90;;;;;;;5.93;53.92;100264.81;5323212;26;32283;-89
2023/03/19 03:04:49;;;;;;;1.85;1.48;;;;;;;5.83;53.77;100258.84;5329388;26;33073;-92
2023/03/19 03:07:42;;;;;;;1.00;1.00;;;;;;;5.97;53.94;100251.63;5309316;26;33526;-92
2023/03/19 03:10:21;;;;;;;0.22;0.22;;;;;;;6.04;53.43;100258.50;5302904;27;33223;-92
2023/03/19 03:13:12;;;;;;;0.15;0.15;;;;;;;5.82;53.78;100262.34;5327864;26;33209;-92
2023/03/19 03:15:52;;;;;;;0.10;0.10;;;;;;;5.90;53.61;100271.81;5331419;26;33963;-90
2023/03/19 03:18:32;;;;;;;0.25;0.25;;;;;;;5.95;54.38;100270.91;5342191;26;33319;-90
2023/03/19 03:21:36;;;;;;;0.65;0.65;;;;;;;6.12;53.72;100266.22;5302308;27;34144;-89
2023/03/19 03:24:05;;;;;;;1.05;1.05;;;;;;;6.01;53.12;100269.03;5266793;27;32654;-90
2023/03/19 03:26:37;;;;;;;0.05;0.05;;;;;;;6.06;53.40;100261.94;5284676;27;33042;-89
2023/03/19 03:29:05;;;;;;;0.32;0.32;;;;;;;6.17;53.21;100264.37;5285009;27;34084;-88
2023/03/19 03:31:33;;;;;;;0.85;0.85;;;;;;;6.25;53.04;100257.25;5266570;27;32730;-89
2023/03/19 03:34:01;;;;;;;0.25;0.25;;;;;;;6.13;52.81;100262.72;5266668;27;32513;-90
2023/03/19 03:36:31;;;;;;;0.37;0.37;;;;;;;5.86;53.82;100272.75;5284674;27;32915;-88
2023/03/19 03:38:59;;;;;;;0.65;0.65;;;;;;;5.95;53.68;100271.78;5284346;27;34494;-88
2023/03/19 03:41:26;;;;;;;0.40;0.40;;;;;;;5.89;53.72;100270.09;5284304;27;33412;-88
2023/03/19 03:43:55;;;;;;;0.10;0.10;;;;;;;6.10;53.27;100268.00;5284326;27;32523;-89
2023/03/19 03:46:23;;;;;;;0.30;0.30;;;;;;;6.01;53.30;100270.78;5248559;27;32996;-89
2023/03/19 03:48:52;;;;;;;0.95;0.95;;;;;;;5.99;53.26;100272.59;5266201;27;32459;-89
2023/03/19 03:51:21;;;;;;;0.22;0.22;;;;;;;6.05;52.80;100262.00;5266107;27;32913;-88
2023/03/19 03:53:48;;;;;;;0.90;0.90;;;;;;;6.06;52.97;100261.09;5284196;27;33912;-88
2023/03/19 03:56:16;;;;;;;0.62;0.62;;;;;;;5.92;53.37;100273.56;5284384;27;34431;-86
2023/03/19 03:58:44;;;;;;;0.20;0.20;;;;;;;5.78;53.58;100277.25;5265840;27;33002;-86
2023/03/19 04:01:16;;;;;;;1.05;0.95;;;;;;;5.80;53.97;100267.63;5300968;27;33094;-85
2023/03/19 04:03:45;;;;;;;0.35;0.35;;;;;;;5.91;53.62;100272.69;5265964;27;33918;-85
2023/03/19 04:06:16;;;;;;;0.25;0.25;;;;;;;5.87;53.32;100271.00;5283649;27;34257;-86
2023/03/19 04:08:47;;;;;;;0.25;0.25;;;;;;;5.63;53.48;100278.38;5301305;27;32870;-86
2023/03/19 04:11:15;;;;;;;1.60;1.23;;;;;;;5.52;53.94;100275.06;5283556;27;34514;-87
2023/03/19 04:13:43;;;;;;;0.45;0.45;;;;;;;5.67;53.57;100279.19;5302087;27;33078;-85
2023/03/19 04:16:11;;;;;;;1.02;1.00;;;;;;;5.56;54.20;100268.03;5284655;27;34599;-85
2023/03/19 04:18:39;;;;;;;0.20;0.20;;;;;;;5.58;53.94;100266.25;5266504;27;33340;-86
2023/03/19 04:21:07;;;;;;;2.78;1.17;;;;;;;5.42;54.34;100260.38;5323250;26;33533;-86
2023/03/19 04:23:35;;;;;;;0.10;0.10;;;;;;;5.62;53.68;100247.81;5306642;26;33696;-86
2023/03/19 04:26:05;;;;;;;1.37;1.23;;;;;;;5.62;53.61;100253.06;5320928;27;34021;-87
2023/03/19 04:28:34;;;;;;;0.05;0.05;;;;;;;5.63;53.38;100251.31;5305146;26;32867;-87
2023/03/19 04:31:04;;;;;;;0.20;0.20;;;;;;;5.52;53.83;100242.78;5288502;26;33029;-89
2023/03/19 04:33:33;;;;;;;0.32;0.32;;;;;;;5.48;54.15;100246.31;5306687;26;32174;-89
2023/03/19 04:36:02;;;;;;;0.10;0.10;;;;;;;5.33;54.66;100248.28;5306899;26;32955;-89
2023/03/19 04:38:31;;;;;;;0.80;0.80;;;;;;;5.66;53.99;100246.03;5306591;26;33801;-89
2023/03/19 04:40:58;;;;;;;2.08;1.30;;;;;;;5.53;54.26;100245.34;5288569;26;32486;-91
2023/03/19 04:44:04;;;;;;;0.20;0.20;;;;;;;5.19;55.24;100255.50;5336689;26;32866;-90
2023/03/19 04:46:33;;;;;;;1.20;1.10;;;;;;;5.48;54.81;100260.28;5328187;26;33752;-92
2023/03/19 04:52:05;;;;;;;0.70;0.65;;;;;;;5.22;55.09;100271.16;5299455;27;33691;-89
2023/03/19 04:54:35;;;;;;;0.15;0.15;;;;;;;5.47;54.38;100268.19;5282434;27;32867;-89
2023/03/19 04:57:04;;;;;;;0.10;0.10;;;;;;;5.70;53.67;100273.03;5299232;27;33783;-89
2023/03/19 04:59:55;;;;;;;0.05;0.05;;;;;;;5.58;53.86;100276.72;5329432;26;34160;-90
2023/03/19 05:02:37;;;;;;;0.62;0.62;;;;;;;5.36;54.62;100269.22;5333433;26;33242;-91
2023/03/19 05:05:16;;;;;;;0.00;0.00;;;;;;;5.11;54.89;100273.03;5374474;26;33349;-91
2023/03/19 05:08:16;;;;;;;0.85;0.85;;;;;;;4.99;55.40;100274.09;5325856;26;34146;-91
2023/03/19 05:10:52;;;;;;;4.18;1.42;;;;;;;5.31;55.02;100281.47;5331531;26;33133;-89
2023/03/19 05:13:20;;;;;;;0.00;0.00;;;;;;;5.49;53.87;100284.72;5311191;26;32164;-88
2023/03/19 05:15:52;;;;;;;0.20;0.20;;;;;;;5.44;54.00;100281.31;5310248;26;31954;-86
2023/03/19 05:18:20;;;;;;;0.73;0.73;;;;;;;5.13;54.70;100281.75;5347007;26;33844;-86
2023/03/19 05:20:48;;;;;;;0.00;0.00;;;;;;;5.04;55.38;100287.13;5328272;26;33171;-86
2023/03/19 05:23:16;;;;;;;0.35;0.35;;;;;;;5.22;55.21;100283.34;5329184;26;34258;-89
2023/03/19 05:25:45;;;;;;;0.93;0.90;;;;;;;5.33;55.12;100287.56;5328452;26;33733;-88
2023/03/19 05:28:15;;;;;;;0.75;0.70;;;;;;;5.48;54.56;100285.59;5347399;26;33007;-88
2023/03/19 05:30:43;;;;;;;0.73;0.73;;;;;;;5.28;55.46;100288.53;5327453;26;33547;-88
2023/03/19 05:33:12;;;;;;;0.35;0.35;;;;;;;5.27;55.93;100303.38;5329893;26;34181;-89
2023/03/19 05:35:41;;;;;;;1.55;0.90;;;;;;;5.57;55.20;100301.19;5310886;26;32185;-89
2023/03/19 05:38:10;;;;;;;0.62;0.62;;;;;;;5.60;55.15;100294.16;5310907;26;33659;-89
2023/03/19 05:40:40;;;;;;;1.02;0.73;;;;;;;5.67;55.00;100291.44;5311226;26;33379;-89
2023/03/19 05:43:10;;;;;;;0.08;0.08;;;;;;;5.53;55.99;100294.25;5311501;26;33161;-88
2023/03/19 05:45:39;;;;;;;2.12;1.55;;;;;;;5.75;55.45;100282.56;5328767;26;32716;-88
2023/03/19 05:48:08;;;;;;;0.15;0.15;;;;;;;6.08;54.42;100280.28;5310036;26;32585;-87
2023/03/19 05:50:37;;;;;;;0.00;0.00;;;;;;;6.38;53.59;100268.38;5346719;26;33762;-87
2023/03/19 05:53:05;;;;;;;0.10;0.10;;;;;;;6.50;53.27;100277.75;5309891;26;33473;-87
2023/03/19 05:55:32;;;;;;;0.60;0.55;;;;;;;6.74;52.37;100276.41;5327907;26;32732;-88
2023/03/19 05:58:06;;;;;;;0.25;0.25;;;;;;;6.55;53.00;100281.16;5309677;26;32784;-87
2023/03/19 06:00:34;;;;;;;0.20;0.20;;;;;;;6.93;51.85;100289.13;5327632;26;33425;-88
2023/03/19 06:03:03;;;;;;;2.03;1.85;;;;;;;7.18;50.88;100278.09;5345508;26;33715;-87
2023/03/19 06:05:31;;;;;;;0.20;0.20;;;;;;;7.18;50.92;100284.22;5327139;26;34253;-88
2023/03/19 06:07:59;;;;;;;0.68;0.68;;;;;;;6.73;52.00;100278.16;5327233;26;34108;-88
2023/03/19 06:10:28;;;;;;;2.45;0.62;;;;;;;6.81;52.40;100288.50;5328223;26;32594;-88
2023/03/19 06:12:56;;;;;;;1.35;0.65;;;;;;;7.00;51.81;100283.75;5291902;26;32721;-88
2023/03/19 06:15:26;;;;;;;1.10;0.52;;;;;;;7.35;50.96;100286.44;5310250;26;33220;-89
2023/03/19 06:17:55;;;;;;;0.05;0.05;;;;;;;7.24;50.85;100293.72;5328235;26;32812;-89
2023/03/19 06:20:22;;;;;;;0.05;0.05;;;;;;;7.24;51.19;100298.97;5310242;26;33414;-89
2023/03/19 06:22:50;;;;;;;0.35;0.35;;;;;;;7.51;50.49;100301.87;5328495;26;33009;-89
2023/03/19 06:25:23;;;;;;;0.85;0.62;;;;;;;7.51;50.29;100302.75;5330581;26;33516;-88
2023/03/19 06:27:51;;;;;;;0.08;0.08;;;;;;;7.33;50.35;100309.25;5310119;26;33095;-88
2023/03/19 06:30:19;;;;;;;0.00;0.00;;;;;;;7.59;49.98;100310.41;5328457;26;32710;-89
2023/03/19 06:32:47;;;;;;;0.65;0.65;;;;;;;7.63;49.06;100312.09;5328382;26;33654;-88
2023/03/19 06:35:15;;;;;;;0.15;0.15;;;;;;;7.63;49.58;100317.34;5309759;26;32903;-89
2023/03/19 06:40:42;;;;;;;0.90;0.85;;;;;;;8.31;48.14;100320.03;5365060;26;34905;-89
2023/03/19 06:43:10;;;;;;;0.20;0.20;;;;;;;8.53;47.54;100315.09;5346488;26;33622;-89
2023/03/19 06:45:38;;;;;;;0.75;0.75;;;;;;;8.56;47.00;100309.75;5309847;26;32401;-88
2023/03/19 06:48:05;;;;;;;1.00;1.00;;;;;;;8.61;46.67;100320.16;5309422;26;34058;-88
2023/03/19 06:50:33;;;;;;;0.30;0.30;;;;;;;8.58;46.26;100318.47;5346684;26;33414;-88
2023/03/19 06:53:01;;;;;;;0.10;0.10;;;;;;;8.28;47.07;100317.47;5310005;26;33110;-88
2023/03/19 06:55:29;;;;;;;0.00;0.00;;;;;;;8.65;45.96;100301.59;5309319;26;32371;-89
2023/03/19 06:57:57;;;;;;;0.10;0.10;;;;;;;8.23;47.19;100313.25;5327026;26;33216;-89
2023/03/19 07:00:25;;;;;;;0.05;0.05;;;;;;;8.23;47.42;100315.88;5329251;26;34817;-90
2023/03/19 07:02:52;;;;;;;3.15;0.93;;;;;;;8.40;46.96;100309.31;5310297;26;32811;-90
2023/03/19 07:05:20;;;;;;;0.13;0.13;;;;;;;8.64;46.47;100304.25;5310759;26;31897;-90
2023/03/19 07:07:48;;;;;;;0.20;0.20;;;;;;;8.80;45.68;100304.72;5309824;26;32757;-89
2023/03/19 07:10:18;;;;;;;0.40;0.40;;;;;;;8.92;45.20;100307.84;5329971;26;33681;-89
2023/03/19 07:12:46;;;;;;;0.00;0.00;;;;;;;9.19;45.26;100297.41;5328760;26;34555;-89
2023/03/19 07:15:14;;;;;;;1.70;1.37;;;;;;;8.85;44.74;100301.03;5327761;26;33122;-89
2023/03/19 07:17:44;;;;;;;0.00;0.00;;;;;;;8.75;45.16;100302.22;5325837;26;33083;-88
2023/03/19 07:20:12;;;;;;;1.35;0.68;;;;;;;8.51;45.76;100298.50;5325255;26;34394;-87
2023/03/19 07:22:39;;;;;;;0.50;0.50;;;;;;;8.54;46.05;100300.16;5306576;26;34053;-87
2023/03/19 07:25:07;;;;;;;0.20;0.20;;;;;;;8.79;45.24;100305.63;5324125;26;32796;-87
2023/03/19 07:27:35;;;;;;;1.48;1.37;;;;;;;8.69;45.55;100305.03;5324665;26;32580;-87
2023/03/19 07:30:03;;;;;;;0.37;0.37;;;;;;;8.81;45.50;100298.53;5324887;26;33677;-87
2023/03/19 07:32:31;;;;;;;0.32;0.32;;;;;;;8.85;45.34;100303.66;5324544;26;33721;-88
2023/03/19 07:34:59;;;;;;;0.10;0.10;;;;;;;8.92;44.94;100312.25;5324693;26;32748;-87
2023/03/19 07:37:26;;;;;;;0.10;0.08;;;;;;;8.79;45.60;100311.75;5324388;26;32835;-87
2023/03/19 07:39:54;;;;;;;0.25;0.20;;;;;;;8.64;45.87;100320.06;5324806;26;33994;-88
2023/03/19 07:42:22;;;;;;;0.00;0.00;;;;;;;9.33;44.63;100308.41;5325113;26;33661;-87
2023/03/19 07:44:49;;;;;;;0.45;0.45;;;;;;;9.42;44.21;100302.84;5343323;26;32803;-87
2023/03/19 07:47:17;;;;;;;0.60;0.60;;;;;;;9.98;43.41;100304.59;5342868;26;34158;-89
2023/03/19 07:49:56;;;;;;;0.45;0.45;;;;;;;9.97;43.00;100303.72;5345620;26;32830;-88
2023/03/19 07:52:24;;;;;;;0.10;0.10;;;;;;;10.37;42.14;100293.63;5307737;26;32950;-90
2023/03/19 07:54:52;;;;;;;1.45;0.25;;;;;;;10.52;42.05;100291.28;5324557;26;32447;-88
2023/03/19 07:57:20;;;;;;;1.65;1.55;;;;;;;10.56;41.72;100286.75;5325012;26;32514;-88
2023/03/19 07:59:48;;;;;;;0.20;0.20;;;;;;;10.58;41.61;100289.34;5343895;26;34026;-88
2023/03/19 08:02:16;;;;;;;1.25;1.15;;;;;;;10.82;40.48;100288.44;5343649;26;34497;-87
2023/03/19 08:04:46;;;;;;;0.05;0.05;;;;;;;10.93;39.99;100285.44;5344478;26;34350;-87
2023/03/19 08:07:14;;;;;;;0.10;0.10;;;;;;;11.15;39.74;100285.47;5344151;26;33690;-87
2023/03/19 08:09:42;;;;;;;0.37;0.37;;;;;;;11.22;39.42;100277.25;5325097;26;34114;-88
2023/03/19 08:12:10;;;;;;;0.52;0.52;;;;;;;11.36;38.99;100283.78;5324842;26;33494;-88
2023/03/19 08:14:38;;;;;;;3.45;1.67;;;;;;;11.06;40.36;100277.87;5325200;26;33728;-88
2023/03/19 08:17:07;;;;;;;0.60;0.60;;;;;;;11.26;38.76;100286.78;5325587;26;34721;-87
2023/03/19 08:19:35;;;;;;;0.73;0.73;;;;;;;11.32;38.72;100277.75;5325002;26;34464;-88
2023/03/19 08:22:02;;;;;;;6.60;0.85;;;;;;;11.56;39.46;100273.28;5305494;26;32822;-88
2023/03/19 08:24:30;;;;;;;0.65;0.65;;;;;;;11.69;39.25;100278.94;5324150;26;33376;-88
2023/03/19 08:26:58;;;;;;;0.10;0.10;;;;;;;11.65;38.25;100269.41;5306946;26;34266;-87
2023/03/19 08:29:26;;;;;;;0.00;0.00;;;;;;;11.43;38.44;100280.81;5324359;26;34396;-88
2023/03/19 08:31:55;;;;;;;1.85;0.70;;;;;;;11.97;37.52;100271.63;5306861;26;33346;-88
2023/03/19 08:34:23;;;;;;;0.43;0.30;;;;;;;11.94;38.12;100271.72;5309203;26;32308;-88
2023/03/19 08:36:51;;;;;;;0.10;0.10;;;;;;;12.01;37.76;100277.63;5324653;26;33093;-90
2023/03/19 08:39:18;;;;;;;0.60;0.60;;;;;;;12.09;37.21;100277.31;5306250;26;33040;-88
2023/03/19 08:41:46;;;;;;;0.30;0.30;;;;;;;12.17;36.85;100272.56;5325474;26;34201;-88
2023/03/19 08:44:14;;;;;;;0.50;0.50;;;;;;;12.45;36.43;100270.44;5344428;26;32731;-88
2023/03/19 08:46:41;;;;;;;2.95;0.90;;;;;;;12.50;35.94;100271.09;5325283;26;32121;-87
2023/03/19 08:49:10;;;;;;;1.23;0.40;;;;;;;12.15;37.35;100269.09;5325434;26;34719;-88
2023/03/19 08:51:37;;;;;;;0.03;0.03;;;;;;;12.77;36.24;100265.47;5344446;26;33135;-87
2023/03/19 08:54:05;;;;;;;1.15;0.75;;;;;;;12.65;36.49;100263.38;5309533;26;32248;-88
2023/03/19 08:56:33;;;;;;;1.77;0.62;;;;;;;12.86;35.96;100265.06;5309523;26;32334;-88
2023/03/19 08:59:01;;;;;;;0.60;0.60;;;;;;;12.74;35.43;100262.97;5328162;26;34534;-86
2023/03/19 09:01:29;;;;;;;0.65;0.37;;;;;;;12.68;36.88;100260.59;5328146;26;33931;-87
2023/03/19 09:03:57;;;;;;;0.30;0.15;;;;;;;12.84;36.59;100263.41;5309947;26;32398;-86
2023/03/19 09:06:24;;;;;;;0.13;0.00;;;;;;;13.20;35.23;100260.87;5307280;26;32791;-86
2023/03/19 09:08:52;;;;;;;0.82;0.80;;;;;;;13.37;34.21;100255.62;5306037;26;33105;-84
2023/03/19 09:11:22;;;;;;;2.22;1.27;;;;;;;13.22;35.15;100259.03;5324184;26;34030;-87
2023/03/19 09:13:49;;;;;;;0.10;0.10;;;;;;;13.54;34.53;100255.69;5324133;26;34707;-88
2023/03/19 09:16:17;;;;;;;0.90;0.55;;;;;;;13.22;34.41;100254.56;5323950;26;33876;-85
2023/03/19 09:18:45;;;;;;;3.37;0.85;;;;;;;13.04;35.44;100256.25;5305880;26;33047;-87
2023/03/19 09:21:13;;;;;;;0.30;0.30;;;;;;;13.15;35.43;100252.22;5324029;26;33016;-86
2023/03/19 09:23:40;;;;;;;0.60;0.30;;;;;;;13.39;35.21;100245.81;5305773;26;32655;-86
2023/03/19 09:26:08;;;;;;;0.60;0.37;;;;;;;13.34;33.84;100261.09;5305991;26;33621;-86
2023/03/19 09:28:36;;;;;;;0.10;0.10;;;;;;;13.36;33.99;100245.97;5305764;26;33024;-86
2023/03/19 09:31:08;;;;;;;7.10;0.95;;;;;;;13.63;34.74;100237.59;5323582;26;34096;-85
2023/03/19 09:33:36;;;;;;;0.00;0.00;;;;;;;13.78;33.43;100231.53;5323610;26;33767;-85
2023/03/19 09:36:04;;;;;;;1.45;1.35;;;;;;;13.61;33.93;100250.06;5305429;26;32882;-84
2023/03/19 09:38:32;;;;;;;2.05;0.80;;;;;;;13.72;33.31;100235.34;5321336;26;34593;-85
2023/03/19 09:41:23;;;;;;;1.50;1.40;;;;;;;14.11;33.95;100228.09;5339860;26;33947;-86
2023/03/19 09:44:04;;;;;;;0.95;0.60;;;;;;;14.38;32.68;100224.00;5321818;26;32913;-84
2023/03/19 09:47:11;;;;;;;0.45;0.40;;;;;;;13.72;33.56;100226.50;5321201;26;33960;-86
2023/03/19 09:49:45;;;;;;;0.10;0.10;;;;;;;13.86;33.95;100224.00;5321643;26;32842;-86
2023/03/19 09:52:24;;;;;;;0.30;0.30;;;;;;;13.74;32.98;100222.00;5339919;26;33947;-86
2023/03/19 09:54:55;;;;;;;0.20;0.20;;;;;;;14.07;33.05;100220.28;5320933;26;32455;-86
2023/03/19 09:57:24;;;;;;;1.83;1.73;;;;;;;14.54;33.43;100222.28;5320536;26;33346;-86
2023/03/19 09:59:53;;;;;;;0.28;0.28;;;;;;;14.35;32.26;100225.03;5302704;26;33446;-85
2023/03/19 10:02:21;;;;;;;3.92;1.73;;;;;;;14.40;32.18;100222.12;5321249;26;34251;-85
2023/03/19 10:04:58;;;;;;;1.10;0.95;;;;;;;14.31;32.59;100234.09;5321811;26;34124;-85
2023/03/19 10:07:39;;;;;;;0.68;0.68;;;;;;;13.81;32.65;100226.94;5335874;26;34400;-86
2023/03/19 10:10:38;;;;;;;0.08;0.08;;;;;;;14.19;32.79;100223.22;5324455;26;34472;-86
2023/03/19 10:13:28;;;;;;;4.05;0.40;;;;;;;14.47;33.09;100215.53;5363252;26;34213;-86
2023/03/19 10:15:59;;;;;;;3.78;0.68;;;;;;;14.32;32.72;100226.97;5325130;26;32838;-86
2023/03/19 10:18:30;;;;;;;0.37;0.37;;;;;;;14.58;31.75;100221.19;5325158;26;34138;-86
2023/03/19 10:21:16;;;;;;;0.28;0.28;;;;;;;14.84;31.51;100205.63;5325501;26;33917;-86
2023/03/19 10:23:49;;;;;;;0.30;0.20;;;;;;;15.00;31.98;100214.47;5343502;26;34273;-86
2023/03/19 10:26:20;;;;;;;0.03;0.03;;;;;;;14.85;31.33;100209.97;5307259;26;32706;-85
2023/03/19 10:28:57;;;;;;;0.80;0.80;;;;;;;14.61;31.45;100206.87;5343919;26;33522;-85
2023/03/19 10:31:36;;;;;;;0.25;0.25;;;;;;;14.64;32.56;100206.72;5303638;26;33080;-86
2023/03/19 10:34:17;;;;;;;5.37;1.10;;;;;;;14.92;30.95;100191.91;5324245;26;32806;-86
2023/03/19 10:36:46;;;;;;;1.05;1.05;;;;;;;15.00;31.77;100201.19;5362408;26;34196;-86
2023/03/19 10:39:17;;;;;;;1.20;0.77;;;;;;;15.16;31.02;100189.69;5306986;26;33639;-87
2023/03/19 10:41:56;;;;;;;3.20;0.95;;;;;;;14.71;31.32;100191.28;5306342;26;33123;-89
2023/03/19 10:44:34;;;;;;;0.68;0.68;;;;;;;14.85;31.62;100188.72;5343521;26;33680;-86
2023/03/19 10:47:13;;;;;;;0.62;0.55;;;;;;;15.18;31.42;100178.00;5342961;26;32276;-89
2023/03/19 10:49:41;;;;;;;1.62;1.30;;;;;;;15.57;31.80;100166.88;5324749;26;34298;-89
2023/03/19 10:52:17;;;;;;;0.28;0.28;;;;;;;15.55;30.08;100163.44;5324399;26;34067;-88
2023/03/19 10:54:45;;;;;;;0.85;0.80;;;;;;;15.79;30.15;100160.31;5325323;26;33157;-89
2023/03/19 10:57:25;;;;;;;2.22;0.90;;;;;;;16.02;31.02;100157.12;5325405;26;32227;-88
2023/03/19 10:59:53;;;;;;;0.00;0.00;;;;;;;15.97;29.44;100164.53;5324767;26;34638;-88
2023/03/19 11:02:26;;;;;;;9.10;2.28;;;;;;;16.14;29.32;100160.84;5343311;26;33764;-87
2023/03/19 11:05:06;;;;;;;0.62;0.45;;;;;;;16.51;29.34;100147.91;5324946;26;32472;-88
2023/03/19 11:07:35;;;;;;;1.10;0.73;;;;;;;16.59;28.48;100138.47;5325170;26;34084;-87
2023/03/19 11:10:04;;;;;;;1.05;1.00;;;;;;;17.21;27.74;100122.06;5323920;26;33490;-88
2023/03/19 11:12:36;;;;;;;0.98;0.57;;;;;;;16.86;29.46;100132.37;5306312;26;33008;-89
2023/03/19 11:15:21;;;;;;;1.25;1.10;;;;;;;16.64;28.29;100131.06;5343262;26;34000;-89
2023/03/19 11:17:56;;;;;;;0.80;0.80;;;;;;;16.76;29.72;100128.56;5343336;26;33215;-88
2023/03/19 11:20:32;;;;;;;1.33;1.20;;;;;;;17.13;26.72;100119.03;5323503;26;34676;-87
2023/03/19 11:23:03;;;;;;;2.53;0.82;;;;;;;17.35;26.90;100114.00;5322773;26;33120;-88
2023/03/19 11:25:40;;;;;;;0.50;0.50;;;;;;;17.32;27.41;100111.53;5325205;26;33227;-88
2023/03/19 11:28:14;;;;;;;0.25;0.25;;;;;;;17.67;28.06;100109.19;5324053;26;32373;-87
2023/03/19 11:30:50;;;;;;;1.02;0.77;;;;;;;17.62;26.59;100099.78;5342601;26;34420;-88
2023/03/19 11:33:37;;;;;;;0.45;0.45;;;;;;;17.56;27.10;100100.16;5342609;26;33350;-88
2023/03/19 11:36:24;;;;;;;0.32;0.32;;;;;;;17.92;27.43;100099.50;5342588;26;33180;-89
2023/03/19 11:38:57;;;;;;;0.77;0.75;;;;;;;18.12;26.17;100098.94;5342686;26;33373;-88
2023/03/19 11:41:54;;;;;;;0.55;0.55;;;;;;;17.90;25.99;100098.75;5342476;26;33101;-89
2023/03/19 11:44:28;;;;;;;1.85;1.33;;;;;;;17.88;27.08;100095.31;5357736;26;34645;-88
2023/03/19 11:47:02;;;;;;;0.52;0.52;;;;;;;18.01;27.34;100096.19;5324251;26;33741;-88
2023/03/19 11:49:41;;;;;;;0.22;0.22;;;;;;;18.42;25.38;100090.59;5324113;26;32051;-88
2023/03/19 11:52:26;;;;;;;0.50;0.37;;;;;;;17.94;26.59;100083.34;5342430;26;32800;-89
2023/03/19 11:55:21;;;;;;;0.47;0.45;;;;;;;18.48;27.22;100083.09;5342755;26;32885;-89
2023/03/19 11:58:07;;;;;;;0.32;0.32;;;;;;;18.50;26.08;100076.66;5324576;26;34425;-89
2023/03/19 12:01:28;;;;;;;0.85;0.85;;;;;;;18.39;26.32;100072.09;5342543;26;32689;-89